Latest Weather Observations for Gabo Island

IDN60801

Issued at 9:05 pm EST Saturday 23 August 2014 (issued every 30 minutes, with the page automatically refreshed every 10 minutes)

About weather observations | Map of weather stations | Latest weather observations for NSW | Other Formats
Station Details ID: 084016 Name: GABO ISLAND LIGHTHOUSE Lat: -37.57 Lon: 149.92 Height: 15.2 m
Data from the previous 72 hours. | See also: Recent months at Gabo Island
Date/Time
EST
Temp
°C
App
Temp
°C
Dew
Point
Rel
Hum
%
Delta-T
°C
Wind Press
QNH
hPa
Press
MSL
hPa
Rain
since 9 am
mm
Dir
 
Spd
km/h
Gust
km/h
Spd
kts
Gust
kts
23/09:00pm 14.7 8.9 12.7 88 1.1 NNE 35 43 19 23 1029.4 - 0.0
23/08:30pm 14.7 8.1 12.7 88 1.1 NNE 39 46 21 25 1029.2 - 0.0
23/08:00pm 14.8 7.8 12.6 87 1.2 NNE 41 46 22 25 1029.1 - 0.0
23/07:30pm 14.6 8.0 12.6 88 1.1 NNE 39 44 21 24 1029.1 - 0.0
23/07:00pm 14.6 9.2 12.8 89 1.0 NNE 33 39 18 21 1029.2 - 0.0
23/06:30pm 14.7 8.5 12.7 88 1.1 NNE 37 43 20 23 1029.1 - 0.0
23/06:00pm 14.8 9.0 12.6 87 1.2 NNE 35 41 19 22 1029.0 1029.0 0.0
23/05:30pm 15.0 9.2 12.6 85 1.3 NNE 35 41 19 22 1028.8 - 0.0
23/05:00pm 15.2 9.0 12.6 84 1.4 NE 37 44 20 24 1028.6 - 0.0
23/04:30pm 15.4 8.8 12.5 83 1.6 NE 39 44 21 24 1028.3 - 0.0
23/04:00pm 15.6 9.4 12.5 82 1.7 NE 37 44 20 24 1028.3 - 0.0
23/03:30pm 15.7 9.7 12.2 80 1.9 NE 35 43 19 23 1028.5 - 0.0
23/03:00pm 16.1 11.1 12.2 77 2.1 NE 30 35 16 19 1028.9 1028.9 0.0
23/02:30pm 16.0 11.0 12.1 77 2.1 NE 30 33 16 18 1029.0 - 0.0
23/02:00pm 16.0 10.6 12.3 79 2.0 NE 32 35 17 19 1029.2 - 0.0
23/01:30pm 16.0 10.8 12.7 81 1.8 NE 32 35 17 19 1029.4 - 0.0
23/01:00pm 16.3 11.0 12.5 78 2.1 NE 32 37 17 20 1029.6 - 0.0
23/12:30pm 16.2 11.3 12.7 80 1.9 NE 30 35 16 19 1030.0 - 0.0
23/12:00pm 15.7 10.5 12.8 83 1.6 NE 32 35 17 19 1030.4 1030.5 0.0
23/11:30am 15.5 10.7 12.8 84 1.5 NE 30 33 16 18 1030.9 - 0.0
23/11:00am 15.4 11.0 12.8 84 1.4 NE 28 32 15 17 1031.3 - 0.0
23/10:30am 15.7 11.5 13.4 86 1.3 NE 28 33 15 18 1031.5 - 0.0
23/10:00am 15.2 11.1 12.8 85 1.3 NE 26 30 14 16 1031.6 - 0.0
23/09:30am 14.6 11.2 12.6 88 1.1 NE 22 26 12 14 1031.9 - 0.0
23/09:00am 14.3 10.9 12.6 89 0.9 ENE 22 26 12 14 1031.9 1032.0 5.8
23/08:30am 14.1 12.1 12.8 92 0.7 NE 15 17 8 9 1031.8 - 5.8
23/08:00am 12.9 10.7 12.1 95 0.4 NNE 15 19 8 10 1031.8 - 5.8
23/07:30am 12.8 10.2 12.0 95 0.4 N 17 20 9 11 1031.8 - 5.4
23/07:00am 12.7 10.1 12.1 96 0.3 NNE 17 20 9 11 1031.5 - 4.8
23/06:30am 12.6 9.9 11.8 95 0.4 NNE 17 20 9 11 1031.1 - 4.6
23/06:00am 12.6 10.7 11.7 94 0.5 NNE 13 17 7 9 1030.9 1031.0 4.4
23/05:30am 12.5 10.6 11.7 95 0.4 N 13 17 7 9 1030.8 - 4.4
23/05:00am 12.6 10.0 12.0 96 0.3 N 17 24 9 13 1030.6 - 4.4
23/04:30am 12.4 10.9 11.8 96 0.3 N 11 17 6 9 1030.5 - 4.2
23/04:00am 12.7 10.4 11.9 95 0.4 N 15 24 8 13 1030.6 - 4.2
23/03:30am 12.6 11.1 11.8 95 0.4 N 11 15 6 8 1030.5 - 3.6
23/03:00am 12.9 10.3 12.1 95 0.4 NNE 17 24 9 13 1030.8 1030.9 3.6
23/02:30am 13.2 10.1 12.1 93 0.6 NNE 20 30 11 16 1030.9 - 2.6
23/02:00am 13.1 10.9 12.2 94 0.5 NNE 15 22 8 12 1031.1 - 1.4
23/01:30am 12.8 9.2 11.9 94 0.5 NNE 22 30 12 16 1031.3 - 0.2
23/01:00am 12.8 6.5 12.2 96 0.3 NNE 37 48 20 26 1031.3 - 0.0
23/12:55am 12.9 6.0 11.6 92 0.7 NNE 39 48 21 26 1031.3 - 0.0
23/12:30am 14.1 8.6 12.0 87 1.1 NE 32 37 17 20 1031.3 - 0.0
23/12:00am 14.1 8.4 11.1 82 1.6 NE 32 35 17 19 1031.4 1031.5 0.0
 
Date/Time
EST
Temp
°C
App
Temp
°C
Dew
Point
Rel
Hum
%
Delta-T
°C
Wind Press
QNH
hPa
Press
MSL
hPa
Rain
since 9 am
mm
Dir
 
Spd
km/h
Gust
km/h
Spd
kts
Gust
kts
22/11:30pm 14.4 8.9 12.0 85 1.3 NE 32 39 17 21 1031.5 - 0.0
22/11:00pm 14.1 8.9 11.7 85 1.3 NE 30 37 16 20 1031.7 - 0.0
22/10:30pm 14.1 9.3 11.8 86 1.2 NNE 28 35 15 19 1031.8 - 0.0
22/10:00pm 14.7 9.3 10.9 78 2.0 NE 30 35 16 19 1031.9 - 0.0
22/09:30pm 14.4 8.5 10.3 76 2.1 NE 32 35 17 19 1032.0 - 0.0
22/09:00pm 14.2 9.3 11.2 82 1.6 NNE 28 35 15 19 1032.0 1032.1 0.0
22/08:30pm 14.4 9.1 11.2 81 1.7 NNE 30 37 16 20 1031.9 - 0.0
22/08:00pm 14.4 8.6 11.6 83 1.5 ENE 33 39 18 21 1031.8 - 0.0
22/07:30pm 14.5 9.3 11.5 82 1.6 NE 30 33 16 18 1031.8 - 0.0
22/07:00pm 14.4 8.8 11.6 83 1.5 NE 32 37 17 20 1031.7 - 0.0
22/06:30pm 14.7 8.9 11.5 81 1.7 NE 33 37 18 20 1031.6 - 0.0
22/06:00pm 14.6 8.3 11.2 80 1.8 NE 35 41 19 22 1031.2 1031.3 0.0
22/05:30pm 14.5 8.4 10.3 76 2.2 NE 33 39 18 21 1031.1 - 0.0
22/05:00pm 14.8 8.9 10.4 75 2.3 NE 32 35 17 19 1030.9 - 0.0
22/04:30pm 15.1 9.4 9.9 71 2.7 NE 30 35 16 19 1030.8 - 0.0
22/04:00pm 15.3 10.0 9.7 69 2.9 NE 28 32 15 17 1030.8 - 0.0
22/03:30pm 15.4 10.1 9.8 69 2.9 NE 28 32 15 17 1030.7 - 0.0
22/03:00pm 15.7 10.1 8.8 63 3.5 NE 28 32 15 17 1030.9 1031.0 0.0
22/02:30pm 15.5 10.8 9.2 66 3.2 NE 24 33 13 18 1031.0 - 0.0
22/02:00pm 15.7 10.7 9.7 67 3.1 NE 26 30 14 16 1031.1 - 0.0
22/01:30pm 16.0 11.3 9.4 65 3.4 NE 24 28 13 15 1031.3 - 0.0
22/01:00pm 15.9 11.4 9.9 67 3.1 NE 24 28 13 15 1031.7 - 0.0
22/12:30pm 15.8 12.1 10.2 69 2.9 ENE 20 22 11 12 1032.1 - 0.0
22/12:00pm 15.6 12.2 10.4 71 2.7 ENE 19 20 10 11 1032.5 1032.6 0.0
22/11:30am 15.4 12.8 10.6 73 2.5 ENE 15 17 8 9 1032.9 - 0.0
22/11:00am 14.7 13.6 10.7 77 2.1 ENE 7 9 4 5 1033.2 - 0.0
22/10:30am 14.5 13.8 11.3 81 1.7 SSE 6 7 3 4 1033.4 - 0.0
22/10:00am 13.5 12.5 11.0 85 1.3 WSW 7 11 4 6 1033.5 - 0.0
22/09:30am 13.1 11.8 11.2 88 1.0 W 9 11 5 6 1033.4 - 0.0
22/09:00am 12.3 10.9 10.9 91 0.7 WSW 9 11 5 6 1033.5 1033.6 1.2
22/08:30am 11.8 10.8 10.4 91 0.7 WSW 6 11 3 6 1033.4 - 1.2
22/08:00am 11.7 10.8 10.5 92 0.6 WNW 6 7 3 4 1033.2 - 1.2
22/07:30am 10.8 9.5 9.8 93 0.5 NW 7 9 4 5 1033.0 - 1.2
22/07:00am 9.8 7.5 9.0 95 0.4 WNW 11 13 6 7 1032.5 - 1.2
22/06:30am 9.5 7.6 8.9 96 0.3 WNW 9 13 5 7 1032.2 - 1.2
22/06:00am 9.1 6.7 8.5 96 0.3 WNW 11 13 6 7 1032.0 1032.1 1.2
22/05:30am 8.8 5.9 8.0 95 0.4 W 13 15 7 8 1032.0 - 1.2
22/05:00am 9.3 6.5 8.7 96 0.3 WNW 13 17 7 9 1031.9 - 1.2
22/04:30am 9.3 6.5 8.5 95 0.4 WNW 13 13 7 7 1031.8 - 1.0
22/04:00am 9.3 6.5 8.7 96 0.3 WNW 13 15 7 8 1031.6 - 1.0
22/03:30am 9.9 8.0 8.9 93 0.5 W 9 13 5 7 1031.5 - 1.0
22/03:00am 10.8 9.7 9.8 93 0.5 WNW 6 7 3 4 1031.4 1031.5 1.0
22/02:30am 11.2 11.3 10.2 94 0.5 CALM 0 6 0 3 1031.5 - 1.0
22/02:00am 11.3 10.1 10.3 94 0.5 WNW 7 9 4 5 1031.8 - 1.0
22/01:30am 11.1 9.8 9.9 92 0.6 W 7 9 4 5 1032.1 - 1.0
22/01:00am 11.2 9.9 10.0 92 0.6 W 7 9 4 5 1032.1 - 1.0
22/12:30am 11.7 10.8 10.5 92 0.6 S 6 11 3 6 1032.4 - 0.4
22/12:00am 10.7 8.9 9.5 92 0.6 WNW 9 11 5 6 1032.2 1032.3 0.2
 
Date/Time
EST
Temp
°C
App
Temp
°C
Dew
Point
Rel
Hum
%
Delta-T
°C
Wind Press
QNH
hPa
Press
MSL
hPa
Rain
since 9 am
mm
Dir
 
Spd
km/h
Gust
km/h
Spd
kts
Gust
kts
21/11:30pm 11.3 9.6 9.9 91 0.7 WNW 9 11 5 6 1032.2 - 0.2
21/11:00pm 11.1 8.9 9.5 90 0.8 N 11 11 6 6 1032.2 - 0.2
21/10:30pm 11.2 8.6 9.4 89 0.9 N 13 13 7 7 1032.3 - 0.2
21/10:00pm 11.7 10.1 10.1 90 0.8 N 9 11 5 6 1032.3 - 0.2
21/09:30pm 11.8 9.8 10.2 90 0.8 N 11 13 6 7 1032.3 - 0.2
21/09:00pm 11.6 9.2 10.2 91 0.7 N 13 15 7 8 1032.2 1032.3 0.2
21/08:30pm 11.3 8.7 9.5 89 0.9 N 13 15 7 8 1032.0 - 0.2
21/08:00pm 12.2 10.2 10.0 86 1.1 N 11 13 6 7 1031.9 - 0.2
21/07:30pm 13.4 8.4 10.9 85 1.3 NE 28 32 15 17 1031.6 - 0.0
21/07:00pm 14.4 10.9 8.8 69 2.8 E 17 22 9 12 1031.4 - 0.0
21/06:30pm 14.4 11.2 8.6 68 2.9 E 15 19 8 10 1031.2 - 0.0
21/06:00pm 14.4 10.5 8.8 69 2.8 E 19 22 10 12 1030.9 1030.9 0.0
21/05:30pm 14.4 10.9 8.8 69 2.8 E 17 20 9 11 1030.6 - 0.0
21/05:00pm 14.7 11.2 8.7 67 3.0 E 17 20 9 11 1030.3 - 0.0
21/04:30pm 15.0 12.3 9.1 68 3.0 E 13 17 7 9 1030.2 - 0.0
21/04:00pm 15.3 14.2 10.5 73 2.5 SSE 7 9 4 5 1030.1 - 0.0
21/03:30pm 15.3 13.9 10.9 75 2.3 S 9 11 5 6 1029.9 - 0.0
21/03:00pm 15.1 13.1 10.3 73 2.5 S 11 13 6 7 1029.9 1030.0 0.0
21/02:30pm 15.2 12.9 10.6 74 2.4 S 13 17 7 9 1030.0 - 0.0
21/02:00pm 15.4 12.3 10.2 71 2.7 S 17 20 9 11 1030.1 - 0.0
21/01:30pm 15.4 12.7 10.4 72 2.6 SSW 15 17 8 9 1030.3 - 0.0
21/01:00pm 14.5 11.2 9.6 72 2.5 SSW 17 19 9 10 1030.3 - 0.0
21/12:30pm 14.5 12.1 10.0 74 2.3 SW 13 15 7 8 1030.5 - 0.0
21/12:00pm 14.0 11.5 9.7 75 2.2 SW 13 15 7 8 1030.9 1031.0 0.0
21/11:30am 13.8 10.9 9.7 76 2.1 WSW 15 17 8 9 1031.2 - 0.0
21/11:00am 13.6 10.7 9.5 76 2.1 WSW 15 19 8 10 1031.5 - 0.0
21/10:30am 13.2 10.0 9.9 80 1.7 W 17 20 9 11 1031.5 - 0.0
21/10:00am 12.6 9.3 9.6 82 1.5 W 17 20 9 11 1031.5 - 0.0
21/09:30am 11.6 8.7 9.6 87 1.0 WNW 15 19 8 10 1031.4 - 0.0
21/09:00am 11.2 8.3 9.6 90 0.8 WNW 15 20 8 11 1031.3 1031.4 0.8
21/08:30am 10.2 6.4 9.0 92 0.6 WNW 19 22 10 12 1031.2 - 0.8
21/08:00am 10.4 6.6 9.0 91 0.7 W 19 22 10 12 1031.0 - 0.8
21/07:30am 10.1 7.0 8.7 91 0.7 W 15 19 8 10 1030.7 - 0.8
21/07:00am 9.7 6.4 8.2 90 0.7 NW 15 20 8 11 1030.5 - 0.6
21/06:30am 9.8 6.0 7.7 87 1.0 WNW 17 20 9 11 1030.3 - 0.4
21/06:00am 9.7 5.5 7.6 87 1.0 WNW 19 22 10 12 1029.7 1029.8 0.4
21/05:30am 10.0 5.6 6.5 79 1.6 WNW 19 24 10 13 1029.5 - 0.0
21/05:00am 9.9 5.3 6.7 80 1.5 WNW 20 24 11 13 1029.3 - 0.0
21/04:30am 10.1 5.7 6.7 79 1.6 WNW 19 20 10 11 1029.1 - 0.0
21/04:00am 10.0 5.7 6.8 80 1.5 WNW 19 24 10 13 1029.1 - 0.0
21/03:30am 10.0 5.7 6.8 80 1.5 WNW 19 22 10 12 1028.8 - 0.0
21/03:00am 10.0 5.6 6.6 79 1.6 - 19 24 10 13 1028.6 1028.6 0.0
21/02:30am 10.2 6.3 7.0 80 1.5 WNW 17 20 9 11 1028.7 - 0.0
21/02:00am 10.4 6.4 6.8 78 1.7 W 17 20 9 11 1028.8 - 0.0
21/01:30am 10.2 5.8 6.5 78 1.7 WNW 19 22 10 12 1028.8 - 0.0
21/01:00am 10.3 5.9 6.7 78 1.7 WNW 19 24 10 13 1028.8 - 0.0
21/12:30am 10.2 5.7 6.8 79 1.6 WNW 20 26 11 14 1028.9 - 0.0
21/12:00am 10.2 5.9 6.8 79 1.6 WNW 19 24 10 13 1028.8 1028.8 0.0
 
Date/Time
EST
Temp
°C
App
Temp
°C
Dew
Point
Rel
Hum
%
Delta-T
°C
Wind Press
QNH
hPa
Press
MSL
hPa
Rain
since 9 am
mm
Dir
 
Spd
km/h
Gust
km/h
Spd
kts
Gust
kts
20/11:30pm 10.1 6.1 6.7 79 1.6 WNW 17 24 9 13 1028.9 - 0.0
20/11:00pm 10.1 5.7 6.7 79 1.6 WNW 19 22 10 12 1028.7 - 0.0
20/10:30pm 10.5 6.1 6.6 77 1.8 WNW 19 26 10 14 1028.6 - 0.0
20/10:00pm 10.7 6.8 6.9 77 1.8 WNW 17 20 9 11 1028.6 - 0.0
20/09:30pm 10.8 7.4 7.7 81 1.5 W 15 20 8 11 1028.8 - 0.0

Other Formats:

Comma delimited format used in spreadsheet applications
http://www.bom.gov.au/fwo/IDN60801/IDN60801.94933.axf

JavaScript Object Notation format (JSON) in row-major order
http://www.bom.gov.au/fwo/IDN60801/IDN60801.94933.json